createdAt,value
2022-11-22T00:00:28.106Z,99908.22
2022-11-22T00:02:55.643Z,99909.41
2022-11-22T00:05:22.570Z,99894.94
2022-11-22T00:07:49.583Z,99884.88
2022-11-22T00:10:16.894Z,99897.41
2022-11-22T00:12:44.359Z,99873.81
2022-11-22T00:15:12.005Z,99884.91
2022-11-22T00:17:39.322Z,99867.56
2022-11-22T00:20:08.773Z,99883.34
2022-11-22T00:22:39.715Z,99873.94
2022-11-22T00:25:09.980Z,99870.31
2022-11-22T00:27:36.865Z,99852.78
2022-11-22T00:30:04.338Z,99857.50
2022-11-22T00:32:31.334Z,99855.97
2022-11-22T00:34:58.204Z,99807.75
2022-11-22T00:37:25.303Z,99851.03
2022-11-22T00:39:52.196Z,99869.41
2022-11-22T00:42:19.098Z,99858.78
2022-11-22T00:44:45.987Z,99829.03
2022-11-22T00:47:12.906Z,99858.88
2022-11-22T00:49:39.818Z,99859.97
2022-11-22T00:52:06.834Z,99839.31
2022-11-22T00:54:33.718Z,99824.44
2022-11-22T00:57:00.582Z,99841.06
2022-11-22T00:59:27.656Z,99775.34
2022-11-22T01:01:54.750Z,99818.78
2022-11-22T01:04:21.829Z,99826.81
2022-11-22T01:06:48.791Z,99798.19
2022-11-22T01:09:21.708Z,99825.63
2022-11-22T01:11:49.006Z,99824.94
2022-11-22T01:14:16.758Z,99818.78
2022-11-22T01:16:43.728Z,99812.09
2022-11-22T01:19:10.955Z,99816.13
2022-11-22T01:21:38.220Z,99791.34
2022-11-22T01:24:05.508Z,99790.56
2022-11-22T01:26:33.590Z,99770.53
2022-11-22T01:29:00.582Z,99703.53
2022-11-22T01:31:27.443Z,99798.91
2022-11-22T01:33:54.339Z,99805.06
2022-11-22T01:36:21.308Z,99793.25
2022-11-22T01:38:48.245Z,99794.00
2022-11-22T01:41:15.202Z,99788.56
2022-11-22T01:43:42.109Z,99795.81
2022-11-22T01:46:34.946Z,99797.66
2022-11-22T01:49:11.620Z,99781.19
2022-11-22T01:51:44.691Z,99789.72
2022-11-22T01:54:16.050Z,99787.09
2022-11-22T01:56:46.128Z,99780.25
2022-11-22T01:59:18.770Z,99778.09
2022-11-22T02:01:45.770Z,99773.19
2022-11-22T02:04:17.557Z,99736.50
2022-11-22T02:07:14.420Z,99765.94
2022-11-22T02:09:43.553Z,99737.97
2022-11-22T02:12:12.297Z,99742.38
2022-11-22T02:14:40.870Z,99724.47
2022-11-22T02:17:07.966Z,99721.34
2022-11-22T02:19:45.602Z,99728.47
2022-11-22T02:22:27.305Z,99734.06
2022-11-22T02:25:12.897Z,99718.63
2022-11-22T02:27:40.318Z,99723.00
2022-11-22T02:30:07.688Z,99708.72
2022-11-22T02:32:34.769Z,99684.00
2022-11-22T02:35:01.797Z,99697.34
2022-11-22T02:37:33.098Z,99711.72
2022-11-22T02:40:05.132Z,99698.41
2022-11-22T02:42:33.720Z,99702.63
2022-11-22T02:45:00.616Z,99699.88
2022-11-22T02:47:27.473Z,99694.06
2022-11-22T02:49:54.393Z,99672.22
2022-11-22T02:52:21.348Z,99654.25
2022-11-22T02:54:48.182Z,99679.75
2022-11-22T02:57:15.046Z,99668.47
2022-11-22T02:59:41.909Z,99658.72
2022-11-22T03:02:08.818Z,99674.97
2022-11-22T03:04:35.737Z,99673.59
2022-11-22T03:07:03.066Z,99665.66
2022-11-22T03:09:31.091Z,99630.97
2022-11-22T03:11:58.519Z,99658.69
2022-11-22T03:14:26.023Z,99660.72
2022-11-22T03:16:53.002Z,99655.03
2022-11-22T03:19:20.350Z,99640.53
2022-11-22T03:21:47.256Z,99627.13
2022-11-22T03:24:14.455Z,99650.16
2022-11-22T03:26:41.487Z,99615.75
2022-11-22T03:29:08.356Z,99635.69
2022-11-22T03:31:36.073Z,99622.44
2022-11-22T03:34:03.007Z,99634.03
2022-11-22T03:36:29.910Z,99628.16
2022-11-22T03:38:56.931Z,99627.84
2022-11-22T03:41:23.783Z,99609.91
2022-11-22T03:43:50.741Z,99588.56
2022-11-22T03:46:19.626Z,99613.50
2022-11-22T03:48:47.144Z,99608.72
2022-11-22T03:51:14.233Z,99583.44
2022-11-22T03:53:41.161Z,99601.91
2022-11-22T03:56:08.132Z,99603.91
2022-11-22T03:58:35.243Z,99605.16
2022-11-22T04:01:02.349Z,99599.78
2022-11-22T04:03:29.305Z,99590.44
2022-11-22T04:05:56.603Z,99603.38
2022-11-22T04:08:23.794Z,99530.19
2022-11-22T04:10:51.500Z,99585.03
2022-11-22T04:13:19.238Z,99585.19
2022-11-22T04:15:46.286Z,99568.94
2022-11-22T04:18:14.346Z,99544.13
2022-11-22T04:20:59.701Z,99475.72
2022-11-22T04:23:32.444Z,99571.94
2022-11-22T04:26:00.931Z,99570.69
2022-11-22T04:28:53.569Z,99560.88
2022-11-22T04:31:33.445Z,99565.97
2022-11-22T04:34:00.322Z,99562.69
2022-11-22T04:36:27.205Z,99557.53
2022-11-22T04:38:54.068Z,99539.97
2022-11-22T04:41:21.148Z,99543.50
2022-11-22T04:44:14.470Z,99539.47
2022-11-22T04:46:41.331Z,99538.06
2022-11-22T04:49:08.223Z,99506.97
2022-11-22T04:51:53.929Z,99524.19
2022-11-22T04:54:20.959Z,99526.38
2022-11-22T04:56:48.099Z,99534.44
2022-11-22T04:59:15.104Z,99539.25
2022-11-22T05:01:41.989Z,99539.44
2022-11-22T05:04:08.869Z,99531.03
2022-11-22T05:06:37.459Z,99452.38
2022-11-22T05:09:04.725Z,99429.25
2022-11-22T05:11:31.658Z,99514.22
2022-11-22T05:13:58.700Z,99499.53
2022-11-22T05:16:25.581Z,99501.72
2022-11-22T05:19:01.657Z,99409.41
2022-11-22T05:21:30.005Z,99475.41
2022-11-22T05:23:57.201Z,99489.44
2022-11-22T05:26:30.173Z,99484.13
2022-11-22T05:29:00.836Z,99481.38
2022-11-22T05:31:28.001Z,99457.00
2022-11-22T05:33:57.085Z,99465.22
2022-11-22T05:36:24.736Z,99465.88
2022-11-22T05:38:52.345Z,99471.19
2022-11-22T05:41:19.366Z,99471.91
2022-11-22T05:43:46.472Z,99465.94
2022-11-22T05:46:26.438Z,99472.09
2022-11-22T05:48:55.235Z,99479.28
2022-11-22T05:51:29.074Z,99466.19
2022-11-22T05:53:59.356Z,99456.25
2022-11-22T05:56:26.249Z,99454.31
2022-11-22T05:58:53.408Z,99461.66
2022-11-22T06:01:22.407Z,99424.41
2022-11-22T06:03:50.150Z,99420.38
2022-11-22T06:06:20.232Z,99436.03
2022-11-22T06:08:48.848Z,99398.84
2022-11-22T06:11:21.866Z,99417.00
2022-11-22T06:13:51.842Z,99433.41
2022-11-22T06:16:18.828Z,99382.25
2022-11-22T06:18:45.785Z,99411.84
2022-11-22T06:21:15.920Z,99411.59
2022-11-22T06:23:43.123Z,99415.94
2022-11-22T06:26:12.545Z,99412.38
2022-11-22T06:28:40.879Z,99424.13
2022-11-22T06:31:28.509Z,99416.94
2022-11-22T06:33:56.213Z,99413.25
2022-11-22T06:36:27.087Z,99417.41
2022-11-22T06:38:54.213Z,99308.34
2022-11-22T06:41:23.906Z,99380.03
2022-11-22T06:43:52.642Z,99351.19
2022-11-22T06:46:21.838Z,99388.31
2022-11-22T06:48:49.745Z,99349.63
2022-11-22T06:51:25.559Z,99374.47
2022-11-22T06:53:55.454Z,99376.94
2022-11-22T06:56:26.346Z,99367.47
2022-11-22T06:58:53.985Z,99352.94
2022-11-22T07:01:28.941Z,99355.91
2022-11-22T07:03:58.482Z,99346.91
2022-11-22T07:06:31.085Z,99367.06
2022-11-22T07:08:59.632Z,99377.16
2022-11-22T07:11:28.726Z,99381.50
2022-11-22T07:14:01.710Z,99368.97
2022-11-22T07:16:32.709Z,99366.81
2022-11-22T07:19:02.907Z,99324.53
2022-11-22T07:21:29.967Z,99333.13
2022-11-22T07:23:56.922Z,99374.00
2022-11-22T07:26:25.661Z,99363.63
2022-11-22T07:28:52.772Z,99355.13
2022-11-22T07:31:19.735Z,99360.75
2022-11-22T07:33:47.246Z,99363.31
2022-11-22T07:36:19.368Z,99363.41
2022-11-22T07:38:47.988Z,99345.78
2022-11-22T07:41:16.091Z,99368.75
2022-11-22T07:43:43.039Z,99361.81
2022-11-22T07:46:22.351Z,99345.75
2022-11-22T07:48:50.018Z,99348.19
2022-11-22T07:51:17.561Z,99342.22
2022-11-22T07:53:44.626Z,99346.91
2022-11-22T07:56:11.634Z,99348.97
2022-11-22T07:58:38.865Z,99343.09
2022-11-22T08:01:08.176Z,99328.09
2022-11-22T08:03:35.956Z,99313.16
2022-11-22T08:06:04.865Z,99290.59
2022-11-22T08:08:31.954Z,99326.97
2022-11-22T08:10:58.907Z,99313.69
2022-11-22T08:13:26.001Z,99319.94
2022-11-22T08:15:54.623Z,99323.94
2022-11-22T08:18:22.730Z,99318.56
2022-11-22T08:20:49.657Z,99350.03
2022-11-22T08:23:16.637Z,99252.97
2022-11-22T08:25:43.530Z,99336.44
2022-11-22T08:28:14.094Z,99335.22
2022-11-22T08:30:42.566Z,99334.13
2022-11-22T08:33:09.523Z,99336.31
2022-11-22T08:35:36.450Z,99322.16
2022-11-22T08:38:03.484Z,99331.00
2022-11-22T08:40:30.434Z,99323.69
2022-11-22T08:42:57.888Z,99327.47
2022-11-22T08:45:25.022Z,99317.63
2022-11-22T08:47:52.682Z,99327.47
2022-11-22T08:50:19.597Z,99224.53
2022-11-22T08:52:46.572Z,99317.53
2022-11-22T08:55:13.519Z,99313.19
2022-11-22T08:57:40.435Z,99263.03
2022-11-22T09:00:08.286Z,99292.84
2022-11-22T09:02:35.218Z,99296.13
2022-11-22T09:05:02.700Z,99293.06
2022-11-22T09:10:18.527Z,99300.13
2022-11-22T09:12:46.500Z,99302.63
2022-11-22T09:15:14.324Z,99297.94
2022-11-22T09:17:42.089Z,99289.78
2022-11-22T09:20:10.115Z,99288.13
2022-11-22T09:22:37.903Z,99288.06
2022-11-22T09:25:06.447Z,99287.47
2022-11-22T09:27:35.274Z,99291.25
2022-11-22T09:30:04.212Z,99285.81
2022-11-22T09:32:33.864Z,99295.03
2022-11-22T09:35:01.077Z,99289.75
2022-11-22T09:37:31.862Z,99288.63
2022-11-22T09:39:59.119Z,99273.72
2022-11-22T09:42:52.547Z,99282.94
2022-11-22T09:45:39.126Z,99264.03
2022-11-22T09:48:21.133Z,99283.22
2022-11-22T09:51:05.771Z,99288.88
2022-11-22T09:53:54.384Z,99294.91
2022-11-22T09:56:25.590Z,99245.28
2022-11-22T09:58:57.414Z,99269.16
2022-11-22T10:01:31.760Z,99264.03
2022-11-22T10:04:13.729Z,99265.44
2022-11-22T10:06:43.848Z,99251.69
2022-11-22T10:09:10.766Z,99273.91
2022-11-22T10:11:49.475Z,99272.50
2022-11-22T10:14:34.869Z,99275.53
2022-11-22T10:17:29.980Z,99274.09
2022-11-22T10:20:06.166Z,99271.00
2022-11-22T10:22:35.042Z,99273.88
2022-11-22T10:25:10.253Z,99268.28
2022-11-22T10:27:38.792Z,99262.59
2022-11-22T10:30:13.566Z,99268.19
2022-11-22T10:32:50.240Z,99229.69
2022-11-22T10:35:28.494Z,99255.50
2022-11-22T10:38:22.585Z,99256.06
2022-11-22T10:41:10.635Z,99253.78
2022-11-22T10:43:37.442Z,99235.94
2022-11-22T10:46:20.490Z,99261.84
2022-11-22T10:49:17.977Z,99247.09
2022-11-22T10:52:14.712Z,99237.34
2022-11-22T10:55:03.506Z,99238.28
2022-11-22T10:57:38.343Z,99239.25
2022-11-22T11:00:19.779Z,99239.25
2022-11-22T11:02:52.737Z,99224.97
2022-11-22T11:05:23.279Z,99212.28
2022-11-22T11:07:56.771Z,99213.97
2022-11-22T11:10:37.362Z,99209.56
2022-11-22T11:13:21.658Z,99220.31
2022-11-22T11:15:56.024Z,99217.66
2022-11-22T11:18:35.742Z,99206.09
2022-11-22T11:21:02.790Z,99190.97
2022-11-22T11:23:29.730Z,99196.38
2022-11-22T11:26:17.961Z,99198.72
2022-11-22T11:28:45.378Z,99182.59
2022-11-22T11:31:18.633Z,99196.66
2022-11-22T11:33:46.574Z,99201.88
2022-11-22T11:36:24.745Z,99147.16
2022-11-22T11:38:56.785Z,99197.13
2022-11-22T11:41:26.837Z,99201.94
2022-11-22T11:43:55.941Z,99200.06
2022-11-22T11:46:28.647Z,99189.59
2022-11-22T11:49:17.298Z,99191.53
2022-11-22T11:51:46.632Z,99184.34
2022-11-22T11:54:22.937Z,99180.81
2022-11-22T11:56:52.755Z,99188.41
2022-11-22T11:59:22.370Z,99189.91
2022-11-22T12:01:57.202Z,99184.34
2022-11-22T12:04:35.028Z,99095.63
2022-11-22T12:07:24.136Z,99187.06
2022-11-22T12:09:53.191Z,99197.28
2022-11-22T12:12:48.000Z,99192.41
2022-11-22T12:15:18.182Z,99197.59
2022-11-22T12:18:06.954Z,99195.28
2022-11-22T12:20:45.593Z,99191.34
2022-11-22T12:23:12.807Z,99189.59
2022-11-22T12:25:40.617Z,99147.91
2022-11-22T12:28:27.567Z,99193.44
2022-11-22T12:30:57.439Z,99186.13
2022-11-22T12:33:47.607Z,99185.00
2022-11-22T12:39:25.144Z,99188.34
2022-11-22T12:42:01.553Z,99177.13
2022-11-22T12:44:35.361Z,99167.25
2022-11-22T12:47:10.099Z,99151.97
2022-11-22T12:48:22.656Z,99179.38
2022-11-22T12:49:55.131Z,99146.25
2022-11-22T12:52:44.146Z,99165.47
2022-11-22T12:55:11.053Z,99163.03
2022-11-22T12:57:58.147Z,99167.72
2022-11-22T13:00:28.958Z,99154.53
2022-11-22T13:03:07.462Z,99172.06
2022-11-22T13:05:43.578Z,99172.88
2022-11-22T13:08:33.198Z,99027.59
2022-11-22T13:11:16.761Z,99162.47
2022-11-22T13:13:47.829Z,99156.88
2022-11-22T13:16:15.101Z,99162.72
2022-11-22T13:18:46.737Z,99163.16
2022-11-22T13:21:40.069Z,99167.25
2022-11-22T13:24:31.404Z,99168.13
2022-11-22T13:27:10.217Z,99174.63
2022-11-22T13:29:41.849Z,99168.78
2022-11-22T13:32:11.594Z,99167.72
2022-11-22T13:35:00.144Z,99166.38
2022-11-22T13:37:29.838Z,99141.69
2022-11-22T13:39:56.903Z,99141.22
2022-11-22T13:42:28.159Z,99157.03
2022-11-22T13:44:58.230Z,99160.72
2022-11-22T13:47:39.056Z,99160.41
2022-11-22T13:50:33.768Z,99163.31
2022-11-22T13:53:23.622Z,99163.81
2022-11-22T13:55:51.462Z,99165.44
2022-11-22T13:58:24.358Z,99162.78
2022-11-22T14:00:53.743Z,99153.22
2022-11-22T14:03:27.913Z,99160.22
2022-11-22T14:05:58.177Z,99154.03
2022-11-22T14:08:38.803Z,99148.97
2022-11-22T14:11:36.430Z,99160.53
2022-11-22T14:14:33.460Z,99160.41
2022-11-22T14:17:15.620Z,99163.97
2022-11-22T14:20:07.747Z,99158.09
2022-11-22T14:22:50.224Z,99159.84
2022-11-22T14:25:38.694Z,99151.06
2022-11-22T14:28:35.850Z,99153.63
2022-11-22T14:31:22.024Z,99146.13
2022-11-22T14:34:34.350Z,99159.84
2022-11-22T14:37:10.463Z,99155.81
2022-11-22T14:39:55.811Z,99147.84
2022-11-22T14:42:43.402Z,99141.97
2022-11-22T14:45:10.341Z,99137.72
2022-11-22T14:47:41.038Z,99147.09
2022-11-22T14:50:36.830Z,99047.81
2022-11-22T14:53:26.222Z,99132.75
2022-11-22T14:56:03.661Z,99136.22
2022-11-22T14:58:35.158Z,99115.22
2022-11-22T15:01:46.735Z,99134.50
2022-11-22T15:09:21.286Z,99132.63
2022-11-22T15:09:21.748Z,99114.97
2022-11-22T15:10:29.047Z,99142.78
2022-11-22T15:13:07.800Z,99135.44
2022-11-22T15:57:37.757Z,99142.47
2022-11-22T16:00:28.858Z,99144.44
2022-11-22T16:03:01.668Z,99135.94
2022-11-22T16:06:05.473Z,99118.28
2022-11-22T16:08:27.876Z,99134.41
2022-11-22T16:10:59.270Z,99113.41
2022-11-22T16:13:28.606Z,99124.09
2022-11-22T16:16:13.914Z,99131.19
2022-11-22T16:18:42.083Z,99138.06
2022-11-22T16:21:11.876Z,99109.50
2022-11-22T16:23:40.209Z,99139.16
2022-11-22T16:26:19.362Z,99136.72
2022-11-22T16:28:51.545Z,99086.34
2022-11-22T16:31:26.215Z,99131.25
2022-11-22T16:33:55.115Z,99122.53
2022-11-22T16:36:24.009Z,99044.56
2022-11-22T16:38:51.379Z,99138.16
2022-11-22T16:41:24.775Z,99122.47
2022-11-22T16:43:54.862Z,99125.72
2022-11-22T16:46:22.000Z,99035.88
2022-11-22T16:48:49.148Z,99122.88
2022-11-22T16:51:36.321Z,99123.28
2022-11-22T16:54:11.161Z,99127.13
2022-11-22T16:56:38.006Z,99120.88
2022-11-22T16:59:11.094Z,99111.53
2022-11-22T17:01:42.140Z,99082.97
2022-11-22T17:04:22.195Z,99113.44
2022-11-22T17:06:49.737Z,99116.34
2022-11-22T17:09:16.641Z,99109.78
2022-11-22T17:11:44.713Z,99077.00
2022-11-22T17:14:15.950Z,99110.25
2022-11-22T17:16:43.018Z,99095.19
2022-11-22T17:19:30.378Z,99113.25
2022-11-22T17:21:58.629Z,99085.25
2022-11-22T17:24:25.721Z,99107.03
2022-11-22T17:26:52.653Z,99093.44
2022-11-22T17:29:43.336Z,99062.81
2022-11-22T17:32:06.574Z,99102.91
2022-11-22T17:34:33.646Z,99083.56
2022-11-22T17:37:00.828Z,99109.09
2022-11-22T17:39:28.631Z,99091.94
2022-11-22T17:41:55.812Z,99101.06
2022-11-22T17:44:22.849Z,99096.94
2022-11-22T17:46:49.884Z,99112.06
2022-11-22T17:49:16.771Z,99110.97
2022-11-22T17:51:46.776Z,99103.50
2022-11-22T17:54:13.680Z,99101.22
2022-11-22T17:56:40.587Z,99107.00
2022-11-22T17:59:07.577Z,99099.16
2022-11-22T18:01:36.912Z,99110.66
2022-11-22T18:04:05.432Z,99107.25
2022-11-22T18:06:32.353Z,99109.53
2022-11-22T18:09:00.392Z,99120.53
2022-11-22T18:11:27.293Z,99099.53
2022-11-22T18:13:54.257Z,99120.63
2022-11-22T18:16:22.368Z,99118.31
2022-11-22T18:18:56.613Z,99128.16
2022-11-22T18:21:24.755Z,99094.13
2022-11-22T18:23:51.726Z,99114.25
2022-11-22T18:31:53.643Z,99082.94
2022-11-22T18:34:21.961Z,99104.13
2022-11-22T18:37:06.254Z,99099.00
2022-11-22T18:39:36.856Z,99094.72
2022-11-22T18:42:06.201Z,99106.06
2022-11-22T18:44:33.401Z,99117.44
2022-11-22T18:47:00.457Z,99115.06
2022-11-22T18:49:29.086Z,99112.56
2022-11-22T18:51:56.230Z,99123.91
2022-11-22T18:54:23.739Z,99102.59
2022-11-22T18:56:51.901Z,99132.06
2022-11-22T18:59:19.036Z,99119.28
2022-11-22T19:01:46.229Z,99117.94
2022-11-22T19:04:15.296Z,99085.31
2022-11-22T19:06:43.271Z,99079.13
2022-11-22T19:09:10.372Z,99116.66
2022-11-22T19:11:37.294Z,99128.69
2022-11-22T19:14:04.651Z,99097.56
2022-11-22T19:16:31.716Z,99106.25
2022-11-22T19:18:59.671Z,99029.69
2022-11-22T19:21:28.639Z,99107.16
2022-11-22T19:23:56.700Z,99106.34
2022-11-22T19:26:25.748Z,99109.78
2022-11-22T19:28:57.955Z,99078.50
2022-11-22T19:31:29.441Z,99099.00
2022-11-22T19:33:57.244Z,99105.38
2022-11-22T19:36:32.256Z,99104.75
2022-11-22T19:39:00.379Z,99068.16
2022-11-22T19:41:27.421Z,99088.00
2022-11-22T19:43:56.518Z,99074.38
2022-11-22T19:46:24.641Z,99090.03
2022-11-22T19:48:56.860Z,99095.28
2022-11-22T19:51:25.313Z,99069.50
2022-11-22T19:53:59.540Z,99093.91
2022-11-22T19:56:30.376Z,99080.00
2022-11-22T19:58:58.913Z,99088.25
2022-11-22T20:01:28.632Z,99060.56
2022-11-22T20:04:01.722Z,99059.19
2022-11-22T20:06:29.374Z,99079.38
2022-11-22T20:09:05.325Z,99089.72
2022-11-22T20:11:32.686Z,99068.91
2022-11-22T20:13:59.613Z,99056.13
2022-11-22T20:16:28.538Z,99066.84
2022-11-22T20:19:00.113Z,99082.50
2022-11-22T20:21:28.903Z,99092.69
2022-11-22T20:23:56.805Z,99087.84
2022-11-22T20:26:24.684Z,99039.81
2022-11-22T20:29:13.065Z,99108.06
2022-11-22T20:31:40.949Z,99108.97
2022-11-22T20:34:08.910Z,99101.84
2022-11-22T20:36:36.223Z,99030.94
2022-11-22T20:39:09.746Z,99117.38
2022-11-22T20:41:37.933Z,99109.47
2022-11-22T20:44:05.045Z,99106.25
2022-11-22T20:46:35.124Z,99109.06
2022-11-22T20:49:02.063Z,99107.28
2022-11-22T20:51:29.665Z,99069.56
2022-11-22T20:53:57.335Z,99092.84
2022-11-22T20:56:24.984Z,99098.88
2022-11-22T20:58:52.604Z,99084.19
2022-11-22T21:01:24.948Z,99091.50
2022-11-22T21:03:52.988Z,99066.34
2022-11-22T21:06:21.749Z,99096.88
2022-11-22T21:08:49.119Z,99096.25
2022-11-22T21:11:18.924Z,99087.03
2022-11-22T21:13:47.350Z,99083.13
2022-11-22T21:16:23.789Z,99085.38
2022-11-22T21:19:01.172Z,99074.34
2022-11-22T21:21:29.268Z,99076.22
2022-11-22T21:23:57.911Z,99085.50
2022-11-22T21:26:25.701Z,99074.97
2022-11-22T21:28:53.625Z,99081.06
2022-11-22T21:31:22.054Z,99047.94
2022-11-22T21:33:49.385Z,99076.66
2022-11-22T21:36:16.452Z,99058.22
2022-11-22T21:38:43.483Z,99036.59
2022-11-22T21:41:39.317Z,99075.78
2022-11-22T21:44:01.484Z,99067.22
2022-11-22T21:46:28.474Z,99044.78
2022-11-22T21:48:56.039Z,99063.78
2022-11-22T21:51:25.928Z,99073.75
2022-11-22T21:53:59.211Z,99071.22
2022-11-22T21:56:27.122Z,99066.25
2022-11-22T21:58:54.093Z,99073.00
2022-11-22T22:01:21.225Z,99049.72
2022-11-22T22:03:48.110Z,99060.31
2022-11-22T22:06:15.074Z,99064.56
2022-11-22T22:08:42.009Z,99075.81
2022-11-22T22:11:08.918Z,99068.31
2022-11-22T22:13:36.086Z,99067.22
2022-11-22T22:16:06.873Z,99069.91
2022-11-22T22:18:35.812Z,99070.13
2022-11-22T22:21:07.646Z,99027.69
2022-11-22T22:23:35.806Z,99043.91
2022-11-22T22:26:05.374Z,99058.84
2022-11-22T22:28:35.333Z,99065.81
2022-11-22T22:31:10.529Z,99056.28
2022-11-22T22:33:39.918Z,99047.84
2022-11-22T22:36:08.598Z,99052.88
2022-11-22T22:38:35.918Z,98952.06
2022-11-22T22:41:05.321Z,99039.28
2022-11-22T22:43:37.784Z,99038.72
2022-11-22T22:46:06.968Z,99019.78
2022-11-22T22:48:34.427Z,99040.59
2022-11-22T22:51:10.804Z,99040.38
2022-11-22T22:53:37.808Z,98993.59
2022-11-22T22:56:05.504Z,99022.00
2022-11-22T22:58:32.936Z,99029.34
2022-11-22T23:01:15.330Z,99012.03
2022-11-22T23:03:42.390Z,98980.34
2022-11-22T23:06:11.716Z,99041.38
2022-11-22T23:08:39.421Z,99000.84
2022-11-22T23:11:08.821Z,99031.13
2022-11-22T23:13:37.762Z,99001.25
2022-11-22T23:16:06.754Z,99016.63
2022-11-22T23:18:38.925Z,98987.88
2022-11-22T23:21:07.963Z,99024.03
2022-11-22T23:23:35.130Z,99008.19
2022-11-22T23:26:04.810Z,99028.25
2022-11-22T23:28:32.138Z,99023.91
2022-11-22T23:31:12.814Z,99018.81
2022-11-22T23:33:40.377Z,99026.31
2022-11-22T23:36:09.882Z,99025.22
2022-11-22T23:38:36.818Z,99036.56
2022-11-22T23:41:04.384Z,99032.44
2022-11-22T23:43:31.952Z,99027.34
2022-11-22T23:45:59.232Z,99035.50
2022-11-22T23:48:27.182Z,98941.47
2022-11-22T23:50:54.106Z,99025.94
2022-11-22T23:53:21.000Z,99019.22
2022-11-22T23:55:47.894Z,99027.00
2022-11-22T23:58:14.814Z,99016.50
